createdAt,value
2022-08-06T00:00:07.727Z,29.60
2022-08-06T00:02:37.337Z,29.60
2022-08-06T00:05:08.083Z,29.60
2022-08-06T00:07:47.865Z,29.50
2022-08-06T00:10:18.777Z,29.50
2022-08-06T00:12:48.824Z,29.50
2022-08-06T00:16:06.322Z,29.50
2022-08-06T00:18:08.920Z,29.50
2022-08-06T00:20:42.808Z,29.40
2022-08-06T00:23:16.608Z,29.40
2022-08-06T00:25:51.968Z,29.40
2022-08-06T00:28:30.350Z,29.40
2022-08-06T00:31:01.027Z,29.40
2022-08-06T00:33:44.516Z,29.40
2022-08-06T00:36:28.252Z,29.30
2022-08-06T00:38:59.563Z,29.30
2022-08-06T00:41:30.704Z,29.30
2022-08-06T00:44:15.112Z,29.30
2022-08-06T00:46:47.970Z,29.30
2022-08-06T00:49:48.113Z,29.30
2022-08-06T00:52:08.469Z,29.30
2022-08-06T00:54:36.901Z,29.30
2022-08-06T00:57:11.945Z,29.30
2022-08-06T00:59:43.009Z,29.20
2022-08-06T01:02:11.891Z,29.20
2022-08-06T01:04:43.303Z,29.30
2022-08-06T01:07:13.103Z,29.20
2022-08-06T01:09:45.932Z,29.20
2022-08-06T01:12:33.674Z,29.20
2022-08-06T01:15:15.486Z,29.20
2022-08-06T01:17:58.060Z,29.20
2022-08-06T01:21:57.984Z,29.20
2022-08-06T01:23:49.531Z,29.20
2022-08-06T01:26:44.486Z,29.10
2022-08-06T01:29:22.874Z,29.10
2022-08-06T01:32:02.199Z,29.10
2022-08-06T01:34:39.059Z,29.10
2022-08-06T01:37:14.334Z,29.10
2022-08-06T01:39:53.791Z,29.00
2022-08-06T01:42:34.619Z,29.10
2022-08-06T01:45:07.482Z,29.00
2022-08-06T01:47:53.849Z,29.00
2022-08-06T01:50:27.858Z,29.00
2022-08-06T01:52:59.785Z,29.00
2022-08-06T01:55:56.104Z,29.00
2022-08-06T01:58:30.443Z,29.00
2022-08-06T02:01:03.712Z,29.00
2022-08-06T02:03:49.569Z,28.90
2022-08-06T02:06:29.600Z,28.90
2022-08-06T02:09:21.828Z,28.90
2022-08-06T02:12:02.818Z,28.90
2022-08-06T02:14:37.520Z,28.90
2022-08-06T02:17:13.646Z,28.80
2022-08-06T02:20:03.988Z,28.80
2022-08-06T02:22:42.601Z,28.80
2022-08-06T02:25:22.400Z,28.80
2022-08-06T02:27:59.334Z,28.80
2022-08-06T02:30:36.239Z,28.80
2022-08-06T02:33:08.623Z,28.80
2022-08-06T02:35:44.981Z,28.80
2022-08-06T02:38:23.626Z,28.70
2022-08-06T02:41:01.482Z,28.70
2022-08-06T02:43:36.579Z,28.70
2022-08-06T02:46:12.379Z,28.70
2022-08-06T02:48:48.691Z,28.70
2022-08-06T02:51:43.476Z,28.70
2022-08-06T02:54:17.749Z,28.70
2022-08-06T02:56:49.572Z,28.70
2022-08-06T02:59:26.192Z,28.60
2022-08-06T03:02:00.295Z,28.60
2022-08-06T03:04:38.582Z,28.60
2022-08-06T03:07:26.499Z,28.60
2022-08-06T03:09:57.967Z,28.60
2022-08-06T03:12:30.389Z,28.60
2022-08-06T03:15:07.152Z,28.60
2022-08-06T03:17:41.627Z,28.60
2022-08-06T03:20:17.189Z,28.50
2022-08-06T03:22:48.270Z,28.50
2022-08-06T03:25:21.182Z,28.50
2022-08-06T03:27:57.447Z,28.50
2022-08-06T03:30:33.777Z,28.50
2022-08-06T03:33:08.073Z,28.50
2022-08-06T03:35:56.339Z,28.50
2022-08-06T03:38:28.803Z,28.50
2022-08-06T03:41:00.710Z,28.50
2022-08-06T03:43:56.036Z,28.40
2022-08-06T03:46:26.641Z,28.40
2022-08-06T03:48:56.292Z,28.40
2022-08-06T03:51:50.830Z,28.40
2022-08-06T03:54:28.050Z,28.40
2022-08-06T03:57:08.479Z,28.40
2022-08-06T03:59:43.830Z,28.30
2022-08-06T04:02:36.945Z,28.30
2022-08-06T04:05:22.882Z,28.30
2022-08-06T04:07:57.908Z,28.30
2022-08-06T04:10:33.348Z,28.30
2022-08-06T04:13:08.457Z,28.30
2022-08-06T04:15:56.468Z,28.30
2022-08-06T04:18:28.137Z,28.30
2022-08-06T04:21:19.351Z,28.20
2022-08-06T04:23:50.798Z,28.20
2022-08-06T04:26:24.998Z,28.20
2022-08-06T04:28:57.359Z,28.20
2022-08-06T04:32:03.138Z,28.20
2022-08-06T04:34:27.479Z,28.20
2022-08-06T04:36:57.969Z,28.10
2022-08-06T04:39:37.723Z,28.10
2022-08-06T04:42:18.089Z,28.10
2022-08-06T04:44:59.428Z,28.10
2022-08-06T04:47:41.649Z,28.10
2022-08-06T04:50:17.868Z,28.10
2022-08-06T04:52:52.412Z,28.10
2022-08-06T04:55:33.593Z,28.10
2022-08-06T04:58:11.285Z,28.10
2022-08-06T05:01:04.021Z,28.10
2022-08-06T05:04:08.977Z,28.00
2022-08-06T05:06:37.811Z,28.00
2022-08-06T05:09:22.787Z,28.10
2022-08-06T05:12:01.911Z,28.00
2022-08-06T05:14:43.151Z,28.00
2022-08-06T05:17:15.686Z,28.00
2022-08-06T05:19:50.084Z,28.00
2022-08-06T05:22:53.896Z,28.00
2022-08-06T05:25:17.847Z,28.00
2022-08-06T05:28:03.435Z,28.00
2022-08-06T05:30:45.657Z,28.00
2022-08-06T05:33:24.117Z,28.00
2022-08-06T05:36:01.913Z,28.00
2022-08-06T05:38:36.913Z,28.00
2022-08-06T05:41:08.051Z,28.00
2022-08-06T05:43:59.028Z,28.00
2022-08-06T05:46:29.449Z,28.00
2022-08-06T05:49:12.265Z,28.00
2022-08-06T05:51:57.724Z,28.00
2022-08-06T05:54:33.481Z,28.10
2022-08-06T05:57:06.763Z,28.00
2022-08-06T05:59:57.833Z,28.10
2022-08-06T06:02:30.695Z,28.10
2022-08-06T06:06:07.562Z,28.10
2022-08-06T06:08:09.793Z,28.10
2022-08-06T06:10:43.872Z,28.20
2022-08-06T06:13:25.510Z,28.20
2022-08-06T06:16:22.293Z,28.20
2022-08-06T06:19:15.556Z,28.20
2022-08-06T06:21:53.633Z,28.20
2022-08-06T06:24:32.743Z,28.20
2022-08-06T06:27:36.222Z,28.20
2022-08-06T06:30:06.083Z,28.20
2022-08-06T06:32:50.163Z,28.30
2022-08-06T06:35:35.890Z,28.30
2022-08-06T06:38:19.219Z,28.30
2022-08-06T06:41:03.087Z,28.40
2022-08-06T06:43:44.651Z,28.40
2022-08-06T06:46:38.901Z,28.40
2022-08-06T06:50:00.419Z,28.40
2022-08-06T06:52:12.988Z,28.40
2022-08-06T06:54:59.594Z,28.40
2022-08-06T06:57:42.789Z,28.50
2022-08-06T07:00:45.504Z,28.40
2022-08-06T07:03:02.787Z,28.50
2022-08-06T07:06:04.485Z,28.50
2022-08-06T07:08:31.803Z,28.50
2022-08-06T07:11:08.589Z,28.50
2022-08-06T07:13:47.653Z,28.50
2022-08-06T07:16:34.341Z,28.50
2022-08-06T07:19:05.443Z,28.60
2022-08-06T07:21:36.232Z,28.60
2022-08-06T07:24:36.954Z,28.60
2022-08-06T07:26:57.872Z,28.60
2022-08-06T07:29:59.210Z,28.70
2022-08-06T07:32:30.596Z,28.70
2022-08-06T07:35:11.920Z,28.60
2022-08-06T07:37:46.762Z,28.70
2022-08-06T07:40:23.410Z,28.70
2022-08-06T07:42:56.039Z,28.70
2022-08-06T07:45:32.326Z,28.70
2022-08-06T07:48:16.705Z,28.70
2022-08-06T07:50:49.298Z,28.70
2022-08-06T07:53:21.193Z,28.80
2022-08-06T07:56:11.918Z,28.70
2022-08-06T07:58:45.994Z,28.80
2022-08-06T08:01:17.091Z,28.80
2022-08-06T08:04:34.065Z,28.80
2022-08-06T08:06:54.768Z,28.90
2022-08-06T08:09:29.375Z,28.90
2022-08-06T08:12:33.975Z,28.90
2022-08-06T08:15:17.984Z,28.90
2022-08-06T08:17:57.815Z,28.90
2022-08-06T08:20:33.728Z,28.90
2022-08-06T08:23:05.216Z,28.90
2022-08-06T08:25:42.116Z,29.00
2022-08-06T08:28:16.732Z,28.90
2022-08-06T08:30:48.033Z,29.00
2022-08-06T08:33:19.374Z,29.00
2022-08-06T08:35:50.122Z,29.00
2022-08-06T08:38:29.470Z,29.00
2022-08-06T08:41:02.938Z,29.00
2022-08-06T08:43:59.534Z,29.10
2022-08-06T08:46:30.761Z,29.10
2022-08-06T08:49:03.241Z,29.20
2022-08-06T08:51:42.213Z,29.20
2022-08-06T08:54:16.619Z,29.20
2022-08-06T08:57:06.269Z,29.20
2022-08-06T08:59:58.068Z,29.30
2022-08-06T09:02:28.362Z,29.30
2022-08-06T09:04:58.585Z,29.30
2022-08-06T09:07:35.906Z,29.30
2022-08-06T09:10:09.206Z,29.30
2022-08-06T09:12:45.222Z,29.40
2022-08-06T09:15:17.712Z,29.40
2022-08-06T09:18:25.889Z,29.40
2022-08-06T09:20:45.640Z,29.40
2022-08-06T09:23:19.119Z,29.50
2022-08-06T09:25:51.815Z,29.50
2022-08-06T09:28:35.820Z,29.50
2022-08-06T09:31:10.622Z,29.60
2022-08-06T09:34:18.843Z,29.60
2022-08-06T09:36:48.487Z,29.60
2022-08-06T09:39:23.273Z,29.60
2022-08-06T09:41:54.044Z,29.60
2022-08-06T09:44:37.040Z,29.60
2022-08-06T09:47:16.505Z,29.70
2022-08-06T09:50:00.218Z,29.70
2022-08-06T09:52:29.505Z,29.70
2022-08-06T09:54:57.963Z,29.80
2022-08-06T09:57:43.959Z,29.80
2022-08-06T10:00:26.963Z,29.80
2022-08-06T10:02:59.045Z,29.90
2022-08-06T10:05:50.385Z,29.90
2022-08-06T10:08:22.645Z,29.90
2022-08-06T10:10:52.420Z,30.00
2022-08-06T10:13:24.669Z,29.90
2022-08-06T10:16:00.598Z,30.00
2022-08-06T10:18:55.571Z,30.00
2022-08-06T10:21:33.263Z,30.10
2022-08-06T10:24:11.953Z,30.10
2022-08-06T10:26:43.342Z,30.10
2022-08-06T10:29:14.661Z,30.10
2022-08-06T10:31:52.701Z,30.20
2022-08-06T10:34:29.714Z,30.20
2022-08-06T10:37:07.782Z,30.20
2022-08-06T10:40:07.985Z,30.30
2022-08-06T10:42:40.534Z,30.40
2022-08-06T10:45:13.654Z,30.40
2022-08-06T10:49:00.910Z,30.50
2022-08-06T10:50:41.717Z,30.50
2022-08-06T10:53:20.794Z,30.50
2022-08-06T10:56:08.948Z,30.50
2022-08-06T10:58:39.089Z,30.60
2022-08-06T11:01:14.044Z,30.60
2022-08-06T11:04:14.117Z,30.60
2022-08-06T11:07:13.391Z,30.70
2022-08-06T11:10:27.080Z,30.70
2022-08-06T11:13:01.263Z,30.80
2022-08-06T11:15:37.634Z,30.80
2022-08-06T11:18:12.071Z,30.80
2022-08-06T11:20:47.333Z,30.90
2022-08-06T11:23:58.333Z,30.90
2022-08-06T11:26:36.434Z,31.00
2022-08-06T11:29:08.762Z,31.00
2022-08-06T11:31:43.440Z,31.10
2022-08-06T11:34:50.954Z,31.10
2022-08-06T11:38:03.711Z,31.20
2022-08-06T11:40:55.416Z,31.20
2022-08-06T11:44:03.227Z,31.20
2022-08-06T11:46:35.977Z,31.30
2022-08-06T11:49:18.182Z,31.40
2022-08-06T11:51:59.340Z,31.40
2022-08-06T11:54:38.520Z,31.40
2022-08-06T11:57:32.636Z,31.50
2022-08-06T12:00:16.171Z,31.60
2022-08-06T12:03:02.454Z,31.60
2022-08-06T12:05:57.077Z,31.60
2022-08-06T12:08:41.823Z,31.70
2022-08-06T12:11:34.389Z,31.70
2022-08-06T12:14:33.835Z,31.80
2022-08-06T12:16:58.615Z,31.80
2022-08-06T12:19:28.240Z,31.90
2022-08-06T12:21:57.687Z,31.90
2022-08-06T12:24:45.386Z,32.00
2022-08-06T12:27:25.100Z,32.00
2022-08-06T12:30:02.379Z,32.00
2022-08-06T12:32:31.854Z,32.10
2022-08-06T12:35:01.963Z,32.10
2022-08-06T12:37:41.588Z,32.20
2022-08-06T12:40:34.553Z,32.20
2022-08-06T12:43:14.948Z,32.20
2022-08-06T12:46:07.310Z,32.30
2022-08-06T12:48:34.609Z,32.30
2022-08-06T12:51:11.512Z,32.30
2022-08-06T12:53:47.269Z,32.40
2022-08-06T12:56:31.286Z,32.40
2022-08-06T12:59:05.204Z,32.50
2022-08-06T13:02:07.409Z,32.50
2022-08-06T13:04:30.372Z,32.50
2022-08-06T13:07:02.782Z,32.50
2022-08-06T13:09:35.990Z,32.60
2022-08-06T13:12:29.666Z,32.60
2022-08-06T13:15:17.514Z,32.70
2022-08-06T13:18:13.430Z,32.70
2022-08-06T13:20:54.513Z,32.80
2022-08-06T13:23:36.904Z,32.80
2022-08-06T13:26:26.157Z,32.80
2022-08-06T13:30:31.882Z,32.90
2022-08-06T13:32:11.256Z,33.00
2022-08-06T13:34:56.274Z,33.00
2022-08-06T13:37:56.635Z,33.00
2022-08-06T13:40:46.562Z,33.10
2022-08-06T13:43:39.179Z,33.20
2022-08-06T13:46:16.913Z,33.10
2022-08-06T13:48:49.473Z,33.20
2022-08-06T13:51:22.217Z,33.20
2022-08-06T13:53:57.583Z,33.20
2022-08-06T13:56:29.133Z,33.20
2022-08-06T13:58:58.338Z,33.20
2022-08-06T14:01:34.852Z,33.30
2022-08-06T14:04:18.057Z,33.30
2022-08-06T14:06:48.213Z,33.30
2022-08-06T14:09:20.687Z,33.40
2022-08-06T14:11:57.800Z,33.40
2022-08-06T14:14:29.077Z,33.30
2022-08-06T14:16:59.221Z,33.30
2022-08-06T14:20:14.490Z,33.30
2022-08-06T14:22:18.685Z,33.30
2022-08-06T14:24:54.588Z,33.40
2022-08-06T14:27:24.629Z,33.20
2022-08-06T14:30:28.601Z,33.30
2022-08-06T14:32:45.779Z,33.30
2022-08-06T14:35:18.680Z,33.30
2022-08-06T14:37:51.386Z,33.20
2022-08-06T14:40:59.438Z,33.20
2022-08-06T14:43:59.938Z,33.20
2022-08-06T14:46:30.546Z,33.20
2022-08-06T14:49:05.694Z,33.10
2022-08-06T14:52:19.339Z,33.10
2022-08-06T14:54:32.012Z,33.10
2022-08-06T14:57:02.229Z,33.00
2022-08-06T14:59:32.302Z,32.90
2022-08-06T15:02:11.495Z,32.90
2022-08-06T15:04:40.045Z,32.90
2022-08-06T15:07:24.490Z,32.80
2022-08-06T15:10:05.142Z,32.80
2022-08-06T15:12:49.677Z,32.80
2022-08-06T15:15:26.879Z,32.80
2022-08-06T15:18:40.182Z,32.70
2022-08-06T15:20:57.653Z,32.70
2022-08-06T15:23:30.750Z,32.70
2022-08-06T15:26:42.254Z,32.70
2022-08-06T15:28:49.379Z,32.70
2022-08-06T15:31:18.863Z,32.70
2022-08-06T15:33:49.386Z,32.80
2022-08-06T15:36:17.778Z,32.80
2022-08-06T15:38:49.188Z,32.70
2022-08-06T15:41:18.465Z,32.70
2022-08-06T15:43:51.258Z,32.70
2022-08-06T15:46:28.432Z,32.70
2022-08-06T15:48:59.578Z,32.70
2022-08-06T15:51:31.450Z,32.70
2022-08-06T15:54:01.945Z,32.80
2022-08-06T15:56:39.419Z,32.80
2022-08-06T15:59:21.145Z,32.80
2022-08-06T16:02:01.851Z,32.70
2022-08-06T16:04:36.572Z,32.80
2022-08-06T16:07:06.687Z,32.80
2022-08-06T16:10:00.814Z,32.80
2022-08-06T16:12:25.937Z,32.80
2022-08-06T16:14:57.676Z,32.70
2022-08-06T16:17:53.453Z,32.70
2022-08-06T16:20:20.766Z,32.80
2022-08-06T16:22:52.567Z,32.80
2022-08-06T16:25:23.868Z,32.80
2022-08-06T16:28:14.597Z,32.80
2022-08-06T16:31:05.479Z,32.80
2022-08-06T16:33:53.947Z,32.80
2022-08-06T16:36:32.806Z,32.70
2022-08-06T16:39:01.958Z,32.80
2022-08-06T16:41:58.553Z,32.80
2022-08-06T16:44:34.883Z,32.70
2022-08-06T16:47:06.269Z,32.70
2022-08-06T16:50:17.455Z,32.70
2022-08-06T16:52:44.557Z,32.70
2022-08-06T16:55:12.722Z,32.70
2022-08-06T16:57:45.030Z,32.70
2022-08-06T17:01:00.708Z,32.60
2022-08-06T17:03:14.399Z,32.60
2022-08-06T17:05:46.073Z,32.70
2022-08-06T17:08:16.981Z,32.60
2022-08-06T17:10:58.160Z,32.60
2022-08-06T17:13:38.554Z,32.60
2022-08-06T17:16:12.621Z,32.60
2022-08-06T17:21:53.025Z,32.60
2022-08-06T17:24:18.040Z,32.50
2022-08-06T17:27:09.298Z,32.50
2022-08-06T17:32:32.590Z,32.50
2022-08-06T17:35:06.683Z,32.50
2022-08-06T17:37:43.400Z,32.50
2022-08-06T17:40:19.096Z,32.40
2022-08-06T17:43:00.362Z,32.40
2022-08-06T17:45:35.016Z,32.40
2022-08-06T17:48:04.390Z,32.40
2022-08-06T17:50:40.864Z,32.40
2022-08-06T17:53:19.927Z,32.40
2022-08-06T17:55:59.519Z,32.30
2022-08-06T17:58:37.626Z,32.30
2022-08-06T18:01:16.978Z,32.30
2022-08-06T18:04:00.800Z,32.20
2022-08-06T18:06:29.685Z,32.20
2022-08-06T18:08:59.203Z,32.20
2022-08-06T18:11:46.879Z,32.20
2022-08-06T18:14:31.950Z,32.20
2022-08-06T18:17:03.212Z,32.10
2022-08-06T18:19:36.625Z,32.20
2022-08-06T18:22:21.410Z,32.10
2022-08-06T18:24:52.925Z,32.10
2022-08-06T18:27:53.790Z,32.10
2022-08-06T18:30:36.628Z,32.10
2022-08-06T18:33:08.069Z,32.00
2022-08-06T18:35:55.758Z,32.00
2022-08-06T18:38:25.530Z,32.00
2022-08-06T18:41:14.258Z,32.00
2022-08-06T18:43:54.146Z,32.00
2022-08-06T18:46:55.912Z,32.00
2022-08-06T18:49:15.524Z,32.00
2022-08-06T18:51:47.150Z,32.00
2022-08-06T18:54:21.291Z,32.00
2022-08-06T18:56:52.198Z,32.00
2022-08-06T18:59:27.462Z,32.00
2022-08-06T19:01:58.210Z,31.90
2022-08-06T19:04:30.176Z,32.00
2022-08-06T19:07:00.647Z,31.90
2022-08-06T19:09:34.013Z,31.90
2022-08-06T19:12:13.018Z,31.90
2022-08-06T19:14:44.088Z,31.80
2022-08-06T19:17:13.387Z,31.90
2022-08-06T19:20:18.048Z,31.90
2022-08-06T19:22:33.569Z,31.80
2022-08-06T19:25:09.573Z,31.80
2022-08-06T19:28:30.855Z,31.80
2022-08-06T19:30:27.911Z,31.80
2022-08-06T19:33:16.078Z,31.80
2022-08-06T19:36:07.115Z,31.80
2022-08-06T19:38:35.241Z,31.70
2022-08-06T19:41:03.905Z,31.70
2022-08-06T19:44:25.486Z,31.70
2022-08-06T19:46:31.889Z,31.70
2022-08-06T19:49:04.379Z,31.70
2022-08-06T19:52:02.789Z,31.70
2022-08-06T19:54:26.403Z,31.70
2022-08-06T19:57:08.352Z,31.70
2022-08-06T20:00:50.323Z,31.70
2022-08-06T20:02:28.963Z,31.60
2022-08-06T20:04:58.380Z,31.60
2022-08-06T20:07:28.760Z,31.60
2022-08-06T20:10:01.957Z,31.60
2022-08-06T20:12:34.440Z,31.60
2022-08-06T20:15:04.978Z,31.50
2022-08-06T20:17:48.563Z,31.50
2022-08-06T20:20:28.880Z,31.50
2022-08-06T20:23:08.396Z,31.50
2022-08-06T20:26:08.595Z,31.50
2022-08-06T20:29:08.553Z,31.50
2022-08-06T20:31:19.822Z,31.40
2022-08-06T20:33:57.851Z,31.40
2022-08-06T20:36:29.437Z,31.40
2022-08-06T20:39:00.485Z,31.40
2022-08-06T20:42:03.160Z,31.40
2022-08-06T20:44:20.022Z,31.40
2022-08-06T20:47:44.154Z,31.40
2022-08-06T20:50:02.995Z,31.30
2022-08-06T20:52:28.722Z,31.30
2022-08-06T20:54:59.802Z,31.30
2022-08-06T20:57:37.275Z,31.30
2022-08-06T21:00:17.783Z,31.30
2022-08-06T21:03:03.379Z,31.30
2022-08-06T21:05:50.368Z,31.20
2022-08-06T21:08:20.003Z,31.30
2022-08-06T21:10:58.359Z,31.30
2022-08-06T21:13:35.885Z,31.30
2022-08-06T21:16:29.035Z,31.20
2022-08-06T21:19:01.184Z,31.20
2022-08-06T21:21:31.640Z,31.20
2022-08-06T21:24:01.117Z,31.20
2022-08-06T21:26:35.246Z,31.20
2022-08-06T21:29:41.920Z,31.20
2022-08-06T21:31:57.703Z,31.20
2022-08-06T21:34:27.640Z,31.20
2022-08-06T21:36:56.646Z,31.10
2022-08-06T21:39:52.202Z,31.10
2022-08-06T21:42:16.012Z,31.10
2022-08-06T21:44:45.529Z,31.10
2022-08-06T21:47:19.793Z,31.10
2022-08-06T21:50:19.057Z,31.10
2022-08-06T21:52:37.699Z,31.10
2022-08-06T21:56:35.085Z,31.10
2022-08-06T21:58:02.693Z,31.10
2022-08-06T22:00:46.459Z,31.10
2022-08-06T22:04:38.327Z,31.00
2022-08-06T22:06:21.380Z,31.00
2022-08-06T22:08:55.581Z,31.00
2022-08-06T22:12:36.571Z,30.90
2022-08-06T22:14:28.790Z,30.90
2022-08-06T22:17:04.751Z,30.90
2022-08-06T22:19:38.293Z,30.90
2022-08-06T22:22:08.239Z,30.90
2022-08-06T22:24:37.527Z,30.90
2022-08-06T22:27:12.736Z,30.90
2022-08-06T22:30:04.290Z,30.90
2022-08-06T22:32:36.222Z,30.80
2022-08-06T22:35:09.720Z,30.90
2022-08-06T22:38:16.515Z,30.90
2022-08-06T22:40:29.991Z,30.80
2022-08-06T22:43:01.559Z,30.80
2022-08-06T22:46:00.205Z,30.90
2022-08-06T22:48:36.349Z,30.80
2022-08-06T22:51:06.134Z,30.80
2022-08-06T22:54:28.728Z,30.80
2022-08-06T22:56:28.831Z,30.80
2022-08-06T22:59:06.282Z,30.80
2022-08-06T23:02:06.579Z,30.80
2022-08-06T23:04:36.896Z,30.80
2022-08-06T23:07:09.308Z,30.80
2022-08-06T23:09:39.735Z,30.80
2022-08-06T23:12:11.326Z,30.80
2022-08-06T23:14:41.687Z,30.80
2022-08-06T23:17:12.556Z,30.80
2022-08-06T23:19:56.404Z,30.80
2022-08-06T23:22:28.882Z,30.80
2022-08-06T23:26:01.065Z,30.80
2022-08-06T23:27:51.651Z,30.80
2022-08-06T23:30:21.264Z,30.70
2022-08-06T23:32:51.345Z,30.70
2022-08-06T23:35:37.081Z,30.70
2022-08-06T23:38:31.969Z,30.70
2022-08-06T23:40:55.172Z,30.70
2022-08-06T23:43:24.130Z,30.70
2022-08-06T23:45:52.997Z,30.60
2022-08-06T23:48:22.994Z,30.60
2022-08-06T23:50:54.405Z,30.60
2022-08-06T23:54:06.052Z,30.60
2022-08-06T23:56:13.705Z,30.60
2022-08-06T23:58:48.771Z,30.60
